createdAt,value
2019-05-30T00:01:41.259Z,18.80
2019-05-30T00:04:07.588Z,18.90
2019-05-30T00:06:33.920Z,18.80
2019-05-30T00:09:00.505Z,18.80
2019-05-30T00:11:26.990Z,18.80
2019-05-30T00:13:54.474Z,18.70
2019-05-30T00:16:21.085Z,18.70
2019-05-30T00:18:47.422Z,18.70
2019-05-30T00:21:13.744Z,18.70
2019-05-30T00:23:40.411Z,18.70
2019-05-30T00:26:07.547Z,18.60
2019-05-30T00:28:34.025Z,18.60
2019-05-30T00:31:00.475Z,18.60
2019-05-30T00:33:26.933Z,18.60
2019-05-30T00:35:53.274Z,18.50
2019-05-30T00:38:19.557Z,18.50
2019-05-30T00:40:45.925Z,18.50
2019-05-30T00:43:12.253Z,18.50
2019-05-30T00:45:38.585Z,18.40
2019-05-30T00:48:05.016Z,18.40
2019-05-30T00:50:31.451Z,18.40
2019-05-30T00:52:58.815Z,18.40
2019-05-30T00:55:25.440Z,18.40
2019-05-30T00:57:51.770Z,18.40
2019-05-30T01:00:18.354Z,18.40
2019-05-30T01:02:44.770Z,18.40
2019-05-30T01:05:11.478Z,18.40
2019-05-30T01:07:37.912Z,18.40
2019-05-30T01:10:08.065Z,18.40
2019-05-30T01:12:34.566Z,18.40
2019-05-30T01:15:01.151Z,18.40
2019-05-30T01:17:27.739Z,18.40
2019-05-30T01:19:54.069Z,18.40
2019-05-30T01:22:20.400Z,18.50
2019-05-30T01:24:46.733Z,18.50
2019-05-30T01:27:13.069Z,18.50
2019-05-30T01:29:39.497Z,18.50
2019-05-30T01:32:24.591Z,18.50
2019-05-30T01:34:50.899Z,18.50
2019-05-30T01:37:17.184Z,18.50
2019-05-30T01:39:43.656Z,18.50
2019-05-30T01:42:09.988Z,18.50
2019-05-30T01:44:36.318Z,18.50
2019-05-30T01:47:02.657Z,18.50
2019-05-30T01:49:28.977Z,18.50
2019-05-30T01:51:55.310Z,18.50
2019-05-30T01:54:21.743Z,18.50
2019-05-30T01:56:48.054Z,18.60
2019-05-30T01:59:14.405Z,18.60
2019-05-30T02:01:40.838Z,18.60
2019-05-30T02:04:07.383Z,18.60
2019-05-30T02:06:37.205Z,18.60
2019-05-30T02:09:03.004Z,18.60
2019-05-30T02:11:29.502Z,18.60
2019-05-30T02:13:55.888Z,18.60
2019-05-30T02:16:22.403Z,18.50
2019-05-30T02:18:48.732Z,18.50
2019-05-30T02:21:15.008Z,18.50
2019-05-30T02:23:41.395Z,18.60
2019-05-30T02:26:08.245Z,18.60
2019-05-30T02:28:34.771Z,18.50
2019-05-30T02:31:02.762Z,18.50
2019-05-30T02:33:29.174Z,18.50
2019-05-30T02:35:55.610Z,18.60
2019-05-30T02:38:22.040Z,18.50
2019-05-30T02:40:48.368Z,18.50
2019-05-30T02:43:14.804Z,18.60
2019-05-30T02:45:41.283Z,18.50
2019-05-30T02:48:09.696Z,18.50
2019-05-30T02:50:36.062Z,18.50
2019-05-30T02:53:05.837Z,18.50
2019-05-30T02:55:30.980Z,18.50
2019-05-30T02:57:57.422Z,18.60
2019-05-30T03:00:32.532Z,18.60
2019-05-30T03:02:58.866Z,18.50
2019-05-30T03:05:25.195Z,18.50
2019-05-30T03:07:51.627Z,18.50
2019-05-30T03:10:18.110Z,18.50
2019-05-30T03:12:44.598Z,18.50
2019-05-30T03:15:14.403Z,18.60
2019-05-30T03:17:39.387Z,18.60
2019-05-30T03:20:14.734Z,18.50
2019-05-30T03:22:35.242Z,18.60
2019-05-30T03:25:03.021Z,18.60
2019-05-30T03:27:31.252Z,18.50
2019-05-30T03:29:57.814Z,18.50
2019-05-30T03:33:02.645Z,18.50
2019-05-30T03:34:52.423Z,18.50
2019-05-30T03:37:28.066Z,18.60
2019-05-30T03:39:47.118Z,18.60
2019-05-30T03:42:15.640Z,18.60
2019-05-30T03:44:41.740Z,18.60
2019-05-30T03:47:11.767Z,18.60
2019-05-30T03:49:42.588Z,18.60
2019-05-30T03:52:14.522Z,18.60
2019-05-30T03:54:40.677Z,18.60
2019-05-30T03:57:11.235Z,18.60
2019-05-30T03:59:48.888Z,18.60
2019-05-30T04:02:21.893Z,18.60
2019-05-30T04:04:52.329Z,18.60
2019-05-30T04:07:22.436Z,18.60
2019-05-30T04:09:52.122Z,18.60
2019-05-30T04:12:40.595Z,18.60
2019-05-30T04:15:27.404Z,18.60
2019-05-30T04:17:53.746Z,18.60
2019-05-30T04:20:22.852Z,18.60
2019-05-30T04:22:48.242Z,18.60
2019-05-30T04:25:14.568Z,18.60
2019-05-30T04:27:41.001Z,18.60
2019-05-30T04:30:07.899Z,18.70
2019-05-30T04:32:34.278Z,18.70
2019-05-30T04:35:00.614Z,18.70
2019-05-30T04:37:26.867Z,18.60
2019-05-30T04:39:53.490Z,18.70
2019-05-30T04:42:20.785Z,18.60
2019-05-30T04:44:47.363Z,18.70
2019-05-30T04:47:14.286Z,18.70
2019-05-30T04:49:41.153Z,18.70
2019-05-30T04:52:11.226Z,18.70
2019-05-30T04:54:35.661Z,18.70
2019-05-30T04:57:02.088Z,18.70
2019-05-30T04:59:28.417Z,18.70
2019-05-30T05:01:55.083Z,18.70
2019-05-30T05:04:21.783Z,18.70
2019-05-30T05:06:48.263Z,18.60
2019-05-30T05:09:15.867Z,18.60
2019-05-30T05:11:42.423Z,18.50
2019-05-30T05:14:08.754Z,18.40
2019-05-30T05:16:36.471Z,18.40
2019-05-30T05:19:03.157Z,18.30
2019-05-30T05:21:29.487Z,18.20
2019-05-30T05:23:55.918Z,18.20
2019-05-30T05:26:22.251Z,18.20
2019-05-30T05:28:48.681Z,18.10
2019-05-30T05:31:16.345Z,18.10
2019-05-30T05:33:55.766Z,18.00
2019-05-30T05:36:11.053Z,18.00
2019-05-30T05:38:37.323Z,17.90
2019-05-30T05:41:03.832Z,17.90
2019-05-30T05:43:30.201Z,17.80
2019-05-30T05:45:56.478Z,17.70
2019-05-30T05:48:22.812Z,17.70
2019-05-30T05:50:49.342Z,17.70
2019-05-30T05:53:16.599Z,17.70
2019-05-30T05:55:43.129Z,17.60
2019-05-30T05:58:09.465Z,17.60
2019-05-30T06:00:35.789Z,17.60
2019-05-30T06:03:02.128Z,17.60
2019-05-30T06:05:28.506Z,17.60
2019-05-30T06:07:54.986Z,17.60
2019-05-30T06:10:21.836Z,17.60
2019-05-30T06:12:48.281Z,17.70
2019-05-30T06:15:15.017Z,17.70
2019-05-30T06:17:41.432Z,17.70
2019-05-30T06:20:08.127Z,17.70
2019-05-30T06:22:34.536Z,17.70
2019-05-30T06:25:02.984Z,17.80
2019-05-30T06:27:29.341Z,17.80
2019-05-30T06:29:55.980Z,17.80
2019-05-30T06:32:22.874Z,17.80
2019-05-30T06:34:49.461Z,17.80
2019-05-30T06:37:15.797Z,17.90
2019-05-30T06:39:42.235Z,17.90
2019-05-30T06:42:08.497Z,17.90
2019-05-30T06:44:34.899Z,17.90
2019-05-30T06:47:01.249Z,18.00
2019-05-30T06:49:28.932Z,18.00
2019-05-30T06:51:55.567Z,18.00
2019-05-30T06:54:26.024Z,18.10
2019-05-30T06:56:52.996Z,18.00
2019-05-30T06:59:19.343Z,18.20
2019-05-30T07:01:45.647Z,18.20
2019-05-30T07:04:12.239Z,18.30
2019-05-30T07:06:39.015Z,18.30
2019-05-30T07:09:07.627Z,18.40
2019-05-30T07:11:33.936Z,18.40
2019-05-30T07:14:00.271Z,18.50
2019-05-30T07:16:27.348Z,18.50
2019-05-30T07:18:53.850Z,18.50
2019-05-30T07:21:20.287Z,18.60
2019-05-30T07:23:46.621Z,18.50
2019-05-30T07:26:13.047Z,18.50
2019-05-30T07:28:39.691Z,18.60
2019-05-30T07:31:06.116Z,18.60
2019-05-30T07:33:33.012Z,18.60
2019-05-30T07:35:59.700Z,18.60
2019-05-30T07:38:28.362Z,18.60
2019-05-30T07:40:54.101Z,18.60
2019-05-30T07:43:20.533Z,18.60
2019-05-30T07:45:57.687Z,18.70
2019-05-30T07:48:15.424Z,18.70
2019-05-30T07:50:41.780Z,18.70
2019-05-30T07:53:08.108Z,18.70
2019-05-30T07:55:35.172Z,18.80
2019-05-30T07:58:01.915Z,18.90
2019-05-30T08:00:29.291Z,18.90
2019-05-30T08:02:55.683Z,19.00
2019-05-30T08:05:24.665Z,19.10
2019-05-30T08:07:50.427Z,19.20
2019-05-30T08:10:17.477Z,19.30
2019-05-30T08:12:43.882Z,19.30
2019-05-30T08:15:11.485Z,19.40
2019-05-30T08:17:38.028Z,19.50
2019-05-30T08:20:05.117Z,19.50
2019-05-30T08:22:31.905Z,19.60
2019-05-30T08:24:58.395Z,19.60
2019-05-30T08:27:24.717Z,19.70
2019-05-30T08:29:51.166Z,19.70
2019-05-30T08:32:19.167Z,19.70
2019-05-30T08:34:46.392Z,19.80
2019-05-30T08:37:12.807Z,19.80
2019-05-30T08:39:39.385Z,19.80
2019-05-30T08:42:05.780Z,19.80
2019-05-30T08:44:32.105Z,19.80
2019-05-30T08:46:58.436Z,19.80
2019-05-30T08:49:24.768Z,19.90
2019-05-30T08:51:51.098Z,19.90
2019-05-30T08:54:17.431Z,19.90
2019-05-30T08:56:43.962Z,19.90
2019-05-30T08:59:10.295Z,20.00
2019-05-30T09:01:37.661Z,20.00
2019-05-30T09:04:04.039Z,20.10
2019-05-30T09:06:30.411Z,20.10
2019-05-30T09:08:57.764Z,20.20
2019-05-30T09:11:24.096Z,20.30
2019-05-30T09:13:50.425Z,20.30
2019-05-30T09:16:16.858Z,20.40
2019-05-30T09:18:43.250Z,20.40
2019-05-30T09:21:09.646Z,20.50
2019-05-30T09:23:38.362Z,20.60
2019-05-30T09:26:04.330Z,20.60
2019-05-30T09:28:30.763Z,20.60
2019-05-30T09:30:58.897Z,20.70
2019-05-30T09:33:25.268Z,20.70
2019-05-30T09:35:51.699Z,20.80
2019-05-30T09:38:18.240Z,20.80
2019-05-30T09:40:45.428Z,20.80
2019-05-30T09:43:12.026Z,20.80
2019-05-30T09:45:39.593Z,20.80
2019-05-30T09:48:06.633Z,20.80
2019-05-30T09:50:32.883Z,20.80
2019-05-30T09:52:59.288Z,20.80
2019-05-30T09:55:25.944Z,20.80
2019-05-30T09:57:52.371Z,20.80
2019-05-30T10:00:21.560Z,20.70
2019-05-30T10:02:48.637Z,20.70
2019-05-30T10:05:15.872Z,20.60
2019-05-30T10:07:43.578Z,20.60
2019-05-30T10:10:11.080Z,20.60
2019-05-30T10:12:38.943Z,20.60
2019-05-30T10:15:09.066Z,20.60
2019-05-30T10:17:35.395Z,20.50
2019-05-30T10:20:02.034Z,20.50
2019-05-30T10:22:28.875Z,20.50
2019-05-30T10:24:55.311Z,20.50
2019-05-30T10:27:21.640Z,20.50
2019-05-30T10:29:49.362Z,20.50
2019-05-30T10:32:16.042Z,20.50
2019-05-30T10:34:42.457Z,20.50
2019-05-30T10:37:08.804Z,20.60
2019-05-30T10:39:35.134Z,20.60
2019-05-30T10:42:01.464Z,20.60
2019-05-30T10:44:27.898Z,20.60
2019-05-30T10:46:54.565Z,20.60
2019-05-30T10:49:33.627Z,20.60
2019-05-30T10:51:49.611Z,20.60
2019-05-30T10:54:15.982Z,20.60
2019-05-30T10:56:42.418Z,20.60
2019-05-30T10:59:08.746Z,20.60
2019-05-30T11:01:36.603Z,20.60
2019-05-30T11:04:03.359Z,20.70
2019-05-30T11:06:39.821Z,20.70
2019-05-30T11:09:06.560Z,20.70
2019-05-30T11:11:32.995Z,20.70
2019-05-30T11:13:59.425Z,20.70
2019-05-30T11:16:25.653Z,20.80
2019-05-30T11:18:53.174Z,20.80
2019-05-30T11:21:20.160Z,20.90
2019-05-30T11:23:46.590Z,21.00
2019-05-30T11:26:13.126Z,21.10
2019-05-30T11:28:39.461Z,21.10
2019-05-30T11:31:05.915Z,21.10
2019-05-30T11:33:32.321Z,21.20
2019-05-30T11:35:59.279Z,21.20
2019-05-30T11:38:25.678Z,21.20
2019-05-30T11:40:53.279Z,21.20
2019-05-30T11:43:19.894Z,21.10
2019-05-30T11:45:46.329Z,21.20
2019-05-30T11:48:12.763Z,21.20
2019-05-30T11:50:39.193Z,21.20
2019-05-30T11:53:05.422Z,21.30
2019-05-30T11:55:31.860Z,21.30
2019-05-30T11:57:58.462Z,21.40
2019-05-30T12:00:25.742Z,21.50
2019-05-30T12:02:52.269Z,21.60
2019-05-30T12:05:19.633Z,21.60
2019-05-30T12:07:45.965Z,21.70
2019-05-30T12:10:12.895Z,21.70
2019-05-30T12:12:39.444Z,21.70
2019-05-30T12:15:07.209Z,21.70
2019-05-30T12:17:33.475Z,21.70
2019-05-30T12:19:59.869Z,21.70
2019-05-30T12:22:26.203Z,21.60
2019-05-30T12:24:53.774Z,21.70
2019-05-30T12:27:20.196Z,21.70
2019-05-30T12:29:46.619Z,21.70
2019-05-30T12:32:13.051Z,21.70
2019-05-30T12:34:39.485Z,21.70
2019-05-30T12:37:06.027Z,21.70
2019-05-30T12:39:32.447Z,21.80
2019-05-30T12:41:59.041Z,21.80
2019-05-30T12:44:25.634Z,22.00
2019-05-30T12:46:55.535Z,22.10
2019-05-30T12:49:21.972Z,22.30
2019-05-30T12:51:48.305Z,22.50
2019-05-30T12:54:14.634Z,22.70
2019-05-30T12:56:40.859Z,22.90
2019-05-30T12:59:27.044Z,23.20
2019-05-30T13:01:54.664Z,23.30
2019-05-30T13:04:21.255Z,23.60
2019-05-30T13:06:47.587Z,23.70
2019-05-30T13:09:17.099Z,23.90
2019-05-30T13:11:43.531Z,24.20
2019-05-30T13:14:09.878Z,24.20
2019-05-30T13:16:36.208Z,24.30
2019-05-30T13:19:02.621Z,24.40
2019-05-30T13:21:29.055Z,24.60
2019-05-30T13:23:55.542Z,24.70
2019-05-30T13:26:21.915Z,24.80
2019-05-30T13:28:48.131Z,24.90
2019-05-30T13:31:14.584Z,25.00
2019-05-30T13:33:41.032Z,25.10
2019-05-30T13:36:07.543Z,25.30
2019-05-30T13:38:33.873Z,25.50
2019-05-30T13:41:01.416Z,25.60
2019-05-30T13:43:28.142Z,25.70
2019-05-30T13:45:54.611Z,25.90
2019-05-30T13:48:20.958Z,26.00
2019-05-30T13:50:47.317Z,26.10
2019-05-30T13:53:13.906Z,26.20
2019-05-30T13:55:40.234Z,26.30
2019-05-30T13:58:07.747Z,26.40
2019-05-30T14:00:34.259Z,26.50
2019-05-30T14:03:00.582Z,26.60
2019-05-30T14:05:27.098Z,26.60
2019-05-30T14:07:55.355Z,26.70
2019-05-30T14:10:22.159Z,26.80
2019-05-30T14:12:48.591Z,26.80
2019-05-30T14:15:16.219Z,26.90
2019-05-30T14:17:42.552Z,26.80
2019-05-30T14:20:11.245Z,26.80
2019-05-30T14:22:37.658Z,26.80
2019-05-30T14:25:05.632Z,26.90
2019-05-30T14:27:31.990Z,26.90
2019-05-30T14:29:58.501Z,26.90
2019-05-30T14:32:24.933Z,26.80
2019-05-30T14:34:51.489Z,26.80
2019-05-30T14:37:18.274Z,26.80
2019-05-30T14:39:44.644Z,26.70
2019-05-30T14:42:11.252Z,26.70
2019-05-30T14:44:37.710Z,26.70
2019-05-30T14:47:04.277Z,26.60
2019-05-30T14:49:30.698Z,26.60
2019-05-30T14:51:58.929Z,26.60
2019-05-30T14:54:25.186Z,26.50
2019-05-30T14:56:51.453Z,26.50
2019-05-30T14:59:17.847Z,26.50
2019-05-30T15:01:44.174Z,26.50
2019-05-30T15:04:11.331Z,26.50
2019-05-30T15:06:37.961Z,26.60
2019-05-30T15:09:15.441Z,26.50
2019-05-30T15:11:33.591Z,26.50
2019-05-30T15:14:00.079Z,26.50
2019-05-30T15:16:26.533Z,26.60
2019-05-30T15:18:52.889Z,26.60
2019-05-30T15:21:19.343Z,26.80
2019-05-30T15:23:45.655Z,26.90
2019-05-30T15:26:12.101Z,27.00
2019-05-30T15:28:38.620Z,27.10
2019-05-30T15:31:06.495Z,27.10
2019-05-30T15:33:33.023Z,27.10
2019-05-30T15:35:59.454Z,27.20
2019-05-30T15:38:25.637Z,27.20
2019-05-30T15:40:52.133Z,27.30
2019-05-30T15:43:18.464Z,27.30
2019-05-30T15:45:44.776Z,27.30
2019-05-30T15:48:12.174Z,27.20
2019-05-30T15:50:38.768Z,27.10
2019-05-30T15:53:04.990Z,27.10
2019-05-30T15:55:31.268Z,27.00
2019-05-30T15:57:57.759Z,26.90
2019-05-30T16:00:24.294Z,26.80
2019-05-30T16:02:50.737Z,26.80
2019-05-30T16:05:18.560Z,26.70
2019-05-30T16:07:45.129Z,26.70
2019-05-30T16:10:12.815Z,26.60
2019-05-30T16:12:39.199Z,26.60
2019-05-30T16:15:07.723Z,26.50
2019-05-30T16:17:34.240Z,26.50
2019-05-30T16:20:00.569Z,26.40
2019-05-30T16:22:26.900Z,26.40
2019-05-30T16:24:53.230Z,26.30
2019-05-30T16:27:19.823Z,26.20
2019-05-30T16:29:46.201Z,26.20
2019-05-30T16:32:13.685Z,26.20
2019-05-30T16:34:40.297Z,26.20
2019-05-30T16:37:06.610Z,26.20
2019-05-30T16:39:33.261Z,26.20
2019-05-30T16:41:59.593Z,26.20
2019-05-30T16:44:26.758Z,26.20
2019-05-30T16:46:53.230Z,26.20
2019-05-30T16:49:21.110Z,26.20
2019-05-30T16:51:47.471Z,26.20
2019-05-30T16:54:15.055Z,26.30
2019-05-30T16:56:41.567Z,26.40
2019-05-30T16:59:08.000Z,26.40
2019-05-30T17:01:34.295Z,26.50
2019-05-30T17:04:00.661Z,26.50
2019-05-30T17:06:26.990Z,26.40
2019-05-30T17:08:53.533Z,26.40
2019-05-30T17:11:19.861Z,26.30
2019-05-30T17:13:46.290Z,26.20
2019-05-30T17:16:12.726Z,26.10
2019-05-30T17:18:39.025Z,26.10
2019-05-30T17:21:05.384Z,25.90
2019-05-30T17:23:31.715Z,25.90
2019-05-30T17:25:58.046Z,25.80
2019-05-30T17:28:24.466Z,25.70
2019-05-30T17:30:50.913Z,25.60
2019-05-30T17:33:20.050Z,25.50
2019-05-30T17:35:45.457Z,25.40
2019-05-30T17:38:11.948Z,25.30
2019-05-30T17:40:44.759Z,25.20
2019-05-30T17:43:06.500Z,25.20
2019-05-30T17:45:32.886Z,25.10
2019-05-30T17:48:15.294Z,25.10
2019-05-30T17:50:27.965Z,25.20
2019-05-30T17:52:54.336Z,25.20
2019-05-30T17:55:21.719Z,25.30
2019-05-30T17:57:48.634Z,25.30
2019-05-30T18:00:15.501Z,25.30
2019-05-30T18:02:41.912Z,25.30
2019-05-30T18:05:08.826Z,25.30
2019-05-30T18:07:35.286Z,25.20
2019-05-30T18:10:01.630Z,25.20
2019-05-30T18:12:29.021Z,25.10
2019-05-30T18:14:55.611Z,25.00
2019-05-30T18:17:23.013Z,25.00
2019-05-30T18:19:49.427Z,24.90
2019-05-30T18:22:15.780Z,24.90
2019-05-30T18:24:42.111Z,24.90
2019-05-30T18:27:08.455Z,24.80
2019-05-30T18:29:34.878Z,24.80
2019-05-30T18:32:01.307Z,24.70
2019-05-30T18:34:30.452Z,24.70
2019-05-30T18:36:57.165Z,24.70
2019-05-30T18:39:24.486Z,24.60
2019-05-30T18:41:50.830Z,24.60
2019-05-30T18:44:17.360Z,24.50
2019-05-30T18:46:43.794Z,24.50
2019-05-30T18:49:10.060Z,24.40
2019-05-30T18:51:36.732Z,24.30
2019-05-30T18:54:03.504Z,24.30
2019-05-30T18:56:30.770Z,24.20
2019-05-30T18:58:57.605Z,24.10
2019-05-30T19:01:25.374Z,24.10
2019-05-30T19:03:52.004Z,24.00
2019-05-30T19:06:18.391Z,24.00
2019-05-30T19:08:44.707Z,23.90
2019-05-30T19:11:26.357Z,23.90
2019-05-30T19:13:39.269Z,23.80
2019-05-30T19:16:05.786Z,23.50
2019-05-30T19:18:32.130Z,23.80
2019-05-30T19:20:58.563Z,23.70
2019-05-30T19:23:25.901Z,23.70
2019-05-30T19:25:52.250Z,23.70
2019-05-30T19:28:18.885Z,23.60
2019-05-30T19:30:45.932Z,23.60
2019-05-30T19:33:12.267Z,23.50
2019-05-30T19:35:38.598Z,23.50
2019-05-30T19:38:04.927Z,23.40
2019-05-30T19:40:31.647Z,23.40
2019-05-30T19:42:58.099Z,23.40
2019-05-30T19:45:24.961Z,23.40
2019-05-30T19:47:51.274Z,23.30
2019-05-30T19:50:17.909Z,23.30
2019-05-30T19:52:46.843Z,23.20
2019-05-30T19:55:12.518Z,23.20
2019-05-30T19:57:39.926Z,23.20
2019-05-30T20:00:08.238Z,23.20
2019-05-30T20:02:34.549Z,23.20
2019-05-30T20:05:01.010Z,23.20
2019-05-30T20:07:27.345Z,23.10
2019-05-30T20:10:01.274Z,23.10
2019-05-30T20:12:21.742Z,23.10
2019-05-30T20:14:48.073Z,23.10
2019-05-30T20:17:14.506Z,23.00
2019-05-30T20:19:41.929Z,23.00
2019-05-30T20:22:08.497Z,23.00
2019-05-30T20:24:34.827Z,23.00
2019-05-30T20:27:01.801Z,23.00
2019-05-30T20:29:28.211Z,22.90
2019-05-30T20:31:56.459Z,22.90
2019-05-30T20:34:22.812Z,22.90
2019-05-30T20:36:49.154Z,22.90
2019-05-30T20:39:15.500Z,22.90
2019-05-30T20:41:43.152Z,22.90
2019-05-30T20:44:09.975Z,22.90
2019-05-30T20:46:37.073Z,22.80
2019-05-30T20:49:04.196Z,22.80
2019-05-30T20:51:30.606Z,22.80
2019-05-30T20:53:57.040Z,22.80
2019-05-30T20:56:23.369Z,22.80
2019-05-30T20:58:49.700Z,22.80
2019-05-30T21:01:16.132Z,22.80
2019-05-30T21:03:43.720Z,22.80
2019-05-30T21:06:11.777Z,22.70
2019-05-30T21:08:39.322Z,22.70
2019-05-30T21:11:07.395Z,22.70
2019-05-30T21:13:34.346Z,22.70
2019-05-30T21:16:01.195Z,22.70
2019-05-30T21:18:27.641Z,22.70
2019-05-30T21:20:54.046Z,22.70
2019-05-30T21:23:20.379Z,22.70
2019-05-30T21:25:47.214Z,22.70
2019-05-30T21:28:14.061Z,22.70
2019-05-30T21:30:41.264Z,22.60
2019-05-30T21:33:08.129Z,22.70
2019-05-30T21:35:34.425Z,22.60
2019-05-30T21:38:00.844Z,22.60
2019-05-30T21:40:27.252Z,22.60
2019-05-30T21:43:04.710Z,22.60
2019-05-30T21:45:21.855Z,22.60
2019-05-30T21:47:48.939Z,22.60
2019-05-30T21:50:16.161Z,22.60
2019-05-30T21:52:43.468Z,22.50
2019-05-30T21:55:10.269Z,22.60
2019-05-30T21:57:36.790Z,22.50
2019-05-30T22:00:07.011Z,22.50
2019-05-30T22:02:33.340Z,22.50
2019-05-30T22:04:59.671Z,22.50
2019-05-30T22:07:26.065Z,22.50
2019-05-30T22:09:52.435Z,22.50
2019-05-30T22:12:18.667Z,22.50
2019-05-30T22:14:45.737Z,22.50
2019-05-30T22:17:12.246Z,22.40
2019-05-30T22:19:38.586Z,22.40
2019-05-30T22:22:04.914Z,22.40
2019-05-30T22:24:31.244Z,22.40
2019-05-30T22:26:57.716Z,22.40
2019-05-30T22:29:24.125Z,22.40
2019-05-30T22:31:51.046Z,22.40
2019-05-30T22:34:17.476Z,22.40
2019-05-30T22:36:44.646Z,22.30
2019-05-30T22:39:11.060Z,22.40
2019-05-30T22:41:37.395Z,22.30
2019-05-30T22:44:23.611Z,22.30
2019-05-30T22:46:50.194Z,22.30
2019-05-30T22:49:16.757Z,22.30
2019-05-30T22:51:43.195Z,22.30
2019-05-30T22:54:09.421Z,22.30
2019-05-30T22:56:36.057Z,22.20
2019-05-30T22:59:02.387Z,22.20
2019-05-30T23:01:28.715Z,22.20
2019-05-30T23:03:55.045Z,22.20
2019-05-30T23:06:21.888Z,22.20
2019-05-30T23:08:48.546Z,22.20
2019-05-30T23:11:15.166Z,22.20
2019-05-30T23:13:41.495Z,22.20
2019-05-30T23:16:08.290Z,22.10
2019-05-30T23:18:34.610Z,22.10
2019-05-30T23:21:01.120Z,22.10
2019-05-30T23:23:27.396Z,22.10
2019-05-30T23:25:53.870Z,22.10
2019-05-30T23:28:20.399Z,22.10
2019-05-30T23:30:47.766Z,22.00
2019-05-30T23:33:14.156Z,22.10
2019-05-30T23:35:40.465Z,22.00
2019-05-30T23:38:06.848Z,22.00
2019-05-30T23:40:33.195Z,22.00
2019-05-30T23:42:59.508Z,22.00
2019-05-30T23:45:26.556Z,22.00
2019-05-30T23:47:53.518Z,21.90
2019-05-30T23:50:20.246Z,21.90
2019-05-30T23:52:46.543Z,21.90
2019-05-30T23:55:13.267Z,21.90
2019-05-30T23:57:39.745Z,21.90
